Log in

Login to your account

Username *
Password *
Remember Me
User Registration
User Profile
(optional)
Cancel

Nous contacter

 Téléphone : +33 (0)4 79 54 41 81

Coordonnées détaillées et accès : cliquez ici

 
LFLB °C
    Ferienhaus Ostsee
[source: ADDS]
METAR
LFLB 212030Z AUTO 36014KT CAVOK 17/09 Q1016 =
TAF LFLB 211100Z 2112/2212 36010KT CAVOK TEMPO 2112/2118 FEW040TCU PROB40 TEMPO 2200/2209 BKN020
TAF
TAF LFLB 211100Z 2112/2212 36010KT CAVOK TEMPO 2112/2118 FEW040TCU PROB40 TEMPO 2200/2209 BKN020 =
SR / SS: 03:59 / 19:06 UTC (Lever/Coucher du soleil le 2019-05-21)
JSN Boot template designed by JoomlaShine.com